createdAt,value
2022-10-12T00:02:11.739Z,81.77
2022-10-12T00:04:43.756Z,81.45
2022-10-12T00:07:16.081Z,81.38
2022-10-12T00:09:48.003Z,81.13
2022-10-12T00:12:19.925Z,81.17
2022-10-12T00:14:51.922Z,80.91
2022-10-12T00:17:23.834Z,80.87
2022-10-12T00:19:55.668Z,81.06
2022-10-12T00:22:27.770Z,81.31
2022-10-12T00:24:59.749Z,81.34
2022-10-12T00:27:32.905Z,81.43
2022-10-12T00:30:05.350Z,81.53
2022-10-12T00:32:37.407Z,81.52
2022-10-12T00:35:09.794Z,81.62
2022-10-12T00:37:41.957Z,81.75
2022-10-12T00:40:14.302Z,82.04
2022-10-12T00:42:46.388Z,82.28
2022-10-12T00:45:18.467Z,82.42
2022-10-12T00:47:58.830Z,82.57
2022-10-12T00:50:34.121Z,82.62
2022-10-12T00:53:11.899Z,82.49
2022-10-12T00:55:46.753Z,82.43
2022-10-12T00:58:19.452Z,82.51
2022-10-12T01:00:51.868Z,82.50
2022-10-12T01:03:24.293Z,82.60
2022-10-12T01:05:56.824Z,82.48
2022-10-12T01:08:30.507Z,82.53
2022-10-12T01:11:02.539Z,82.50
2022-10-12T01:13:34.769Z,82.59
2022-10-12T01:16:27.539Z,82.90
2022-10-12T01:19:21.349Z,83.02
2022-10-12T01:21:56.233Z,82.87
2022-10-12T01:24:47.184Z,82.99
2022-10-12T01:27:38.821Z,83.07
2022-10-12T01:30:16.357Z,83.17
2022-10-12T01:33:12.068Z,83.28
2022-10-12T01:36:01.801Z,83.41
2022-10-12T01:38:45.696Z,83.62
2022-10-12T01:41:23.340Z,83.53
2022-10-12T01:43:55.298Z,83.36
2022-10-12T01:46:30.136Z,83.43
2022-10-12T01:49:03.383Z,83.18
2022-10-12T01:51:49.811Z,83.37
2022-10-12T01:54:33.668Z,83.32
2022-10-12T01:57:14.250Z,83.03
2022-10-12T02:00:01.041Z,82.81
2022-10-12T02:02:41.304Z,82.31
2022-10-12T02:05:28.317Z,82.28
2022-10-12T02:08:24.505Z,82.33
2022-10-12T02:10:59.319Z,82.66
2022-10-12T02:13:34.242Z,81.99
2022-10-12T02:16:09.119Z,81.97
2022-10-12T02:18:43.951Z,81.69
2022-10-12T02:21:19.164Z,81.53
2022-10-12T02:23:53.853Z,81.15
2022-10-12T02:26:26.061Z,80.60
2022-10-12T02:29:00.467Z,80.09
2022-10-12T02:31:42.077Z,79.86
2022-10-12T02:34:32.781Z,79.28
2022-10-12T02:37:07.584Z,79.03
2022-10-12T02:39:48.374Z,78.78
2022-10-12T02:42:25.944Z,78.50
2022-10-12T02:45:00.747Z,78.07
2022-10-12T02:47:36.540Z,77.77
2022-10-12T02:50:10.860Z,77.57
2022-10-12T02:52:42.942Z,77.29
2022-10-12T02:55:15.485Z,77.14
2022-10-12T02:57:47.607Z,76.71
2022-10-12T03:00:19.891Z,76.42
2022-10-12T03:02:52.739Z,76.14
2022-10-12T03:05:24.639Z,75.95
2022-10-12T03:07:57.089Z,75.66
2022-10-12T03:10:29.175Z,75.10
2022-10-12T03:13:01.227Z,74.95
2022-10-12T03:15:33.355Z,74.62
2022-10-12T03:18:05.477Z,74.28
2022-10-12T03:20:37.540Z,74.24
2022-10-12T03:23:09.612Z,74.24
2022-10-12T03:25:42.796Z,74.05
2022-10-12T03:28:15.510Z,73.85
2022-10-12T03:30:47.789Z,73.74
2022-10-12T03:33:19.838Z,73.50
2022-10-12T03:35:52.259Z,73.22
2022-10-12T03:38:24.201Z,73.07
2022-10-12T03:40:57.359Z,72.95
2022-10-12T03:43:29.324Z,72.94
2022-10-12T03:46:01.334Z,73.09
2022-10-12T03:48:33.272Z,73.04
2022-10-12T03:51:05.208Z,72.65
2022-10-12T03:53:40.710Z,72.73
2022-10-12T03:56:11.267Z,72.58
2022-10-12T03:58:43.321Z,72.53
2022-10-12T04:01:15.441Z,71.95
2022-10-12T04:03:47.435Z,71.88
2022-10-12T04:06:19.840Z,71.40
2022-10-12T04:08:51.954Z,71.01
2022-10-12T04:11:24.146Z,70.45
2022-10-12T04:13:56.124Z,70.39
2022-10-12T04:16:30.395Z,70.16
2022-10-12T04:19:01.756Z,69.95
2022-10-12T04:21:34.352Z,69.79
2022-10-12T04:24:06.666Z,69.34
2022-10-12T04:26:39.386Z,68.48
2022-10-12T04:29:14.308Z,68.22
2022-10-12T04:31:46.385Z,67.61
2022-10-12T04:34:18.440Z,66.76
2022-10-12T04:36:50.472Z,65.80
2022-10-12T04:39:22.691Z,63.56
2022-10-12T04:41:54.870Z,62.11
2022-10-12T04:44:31.968Z,61.11
2022-10-12T04:47:01.011Z,57.74
2022-10-12T04:49:33.196Z,55.11
2022-10-12T04:52:05.211Z,53.83
2022-10-12T04:54:37.377Z,53.86
2022-10-12T04:57:09.889Z,53.86
2022-10-12T04:59:42.702Z,53.34
2022-10-12T05:02:14.872Z,52.04
2022-10-12T05:04:46.724Z,50.52
2022-10-12T05:07:19.102Z,50.23
2022-10-12T05:09:51.564Z,48.79
2022-10-12T05:12:23.716Z,48.62
2022-10-12T05:14:55.728Z,48.51
2022-10-12T05:17:27.797Z,48.84
2022-10-12T05:20:00.165Z,48.72
2022-10-12T05:22:33.849Z,49.73
2022-10-12T05:25:06.666Z,50.33
2022-10-12T05:27:40.896Z,50.92
2022-10-12T05:30:13.530Z,51.45
2022-10-12T05:32:46.011Z,52.20
2022-10-12T05:35:18.204Z,53.13
2022-10-12T05:37:50.712Z,52.78
2022-10-12T05:40:22.685Z,51.70
2022-10-12T05:42:54.871Z,50.37
2022-10-12T05:45:27.164Z,50.06
2022-10-12T05:47:59.347Z,49.76
2022-10-12T05:50:31.460Z,49.04
2022-10-12T05:53:03.429Z,46.70
2022-10-12T05:55:35.416Z,44.19
2022-10-12T05:58:07.519Z,42.25
2022-10-12T06:00:39.506Z,40.70
2022-10-12T06:03:11.471Z,40.72
2022-10-12T06:05:44.331Z,41.42
2022-10-12T06:08:16.483Z,42.30
2022-10-12T06:10:51.769Z,44.08
2022-10-12T06:13:24.622Z,45.83
2022-10-12T06:15:56.891Z,46.59
2022-10-12T06:18:29.801Z,46.97
2022-10-12T06:21:31.940Z,47.21
2022-10-12T06:23:35.778Z,48.07
2022-10-12T06:26:08.660Z,47.87
2022-10-12T06:28:41.301Z,47.55
2022-10-12T06:31:14.372Z,48.26
2022-10-12T06:33:46.530Z,47.91
2022-10-12T06:36:19.054Z,47.82
2022-10-12T06:38:51.204Z,47.75
2022-10-12T06:41:23.743Z,47.23
2022-10-12T06:43:55.827Z,47.83
2022-10-12T06:46:28.813Z,47.95
2022-10-12T06:49:01.325Z,47.58
2022-10-12T06:54:27.999Z,48.89
2022-10-12T06:57:00.175Z,48.06
2022-10-12T06:59:32.366Z,48.10
2022-10-12T07:02:04.693Z,47.91
2022-10-12T07:04:36.881Z,49.31
2022-10-12T07:07:08.948Z,47.82
2022-10-12T07:09:41.070Z,47.69
2022-10-12T07:12:12.985Z,47.37
2022-10-12T07:14:45.285Z,47.41
2022-10-12T07:17:17.280Z,47.95
2022-10-12T07:19:49.392Z,48.03
2022-10-12T07:22:21.320Z,48.27
2022-10-12T07:24:53.459Z,47.84
2022-10-12T07:27:25.940Z,48.19
2022-10-12T07:29:58.157Z,47.34
2022-10-12T07:32:30.266Z,45.63
2022-10-12T07:35:03.082Z,44.62
2022-10-12T07:37:35.075Z,43.85
2022-10-12T07:40:07.776Z,43.30
2022-10-12T07:43:05.249Z,42.27
2022-10-12T07:45:13.856Z,42.00
2022-10-12T07:47:46.813Z,41.28
2022-10-12T07:50:19.132Z,41.51
2022-10-12T07:52:51.144Z,41.13
2022-10-12T07:55:23.124Z,41.14
2022-10-12T07:57:55.772Z,41.21
2022-10-12T08:00:29.727Z,41.30
2022-10-12T08:03:02.035Z,41.37
2022-10-12T08:05:34.480Z,41.49
2022-10-12T08:08:07.455Z,41.54
2022-10-12T08:10:39.855Z,41.62
2022-10-12T08:13:11.759Z,42.30
2022-10-12T08:15:46.761Z,42.28
2022-10-12T08:18:19.008Z,42.08
2022-10-12T08:20:50.868Z,41.86
2022-10-12T08:23:22.748Z,42.07
2022-10-12T08:25:56.535Z,42.46
2022-10-12T08:28:28.744Z,41.99
2022-10-12T08:31:00.835Z,42.42
2022-10-12T08:36:02.636Z,43.13
2022-10-12T08:38:35.376Z,43.57
2022-10-12T08:41:28.803Z,44.05
2022-10-12T08:44:26.294Z,45.21
2022-10-12T08:47:07.137Z,44.89
2022-10-12T08:49:40.386Z,45.27
2022-10-12T08:52:33.651Z,45.79
2022-10-12T08:55:23.649Z,45.99
2022-10-12T08:57:55.994Z,46.00
2022-10-12T09:00:31.043Z,45.99
2022-10-12T09:03:22.167Z,46.14
2022-10-12T09:06:15.406Z,46.11
2022-10-12T09:09:05.261Z,46.61
2022-10-12T09:11:55.212Z,46.33
2022-10-12T09:14:36.798Z,46.67
2022-10-12T09:17:29.785Z,45.89
2022-10-12T09:20:08.024Z,45.56
2022-10-12T09:22:41.602Z,45.30
2022-10-12T09:25:16.841Z,45.60
2022-10-12T09:27:48.998Z,44.93
2022-10-12T09:30:22.105Z,44.71
2022-10-12T09:33:05.884Z,44.43
2022-10-12T09:35:39.039Z,44.17
2022-10-12T09:38:13.624Z,44.67
2022-10-12T09:40:47.711Z,43.68
2022-10-12T09:43:20.481Z,43.89
2022-10-12T09:45:52.816Z,44.29
2022-10-12T09:48:26.533Z,43.77
2022-10-12T09:51:02.002Z,43.44
2022-10-12T09:53:40.118Z,43.22
2022-10-12T09:56:16.862Z,43.57
2022-10-12T09:58:54.580Z,43.74
2022-10-12T10:01:32.375Z,43.53
2022-10-12T10:04:19.630Z,43.48
2022-10-12T10:06:52.153Z,43.22
2022-10-12T10:09:35.876Z,42.60
2022-10-12T10:12:17.003Z,42.96
2022-10-12T10:14:49.756Z,43.01
2022-10-12T10:17:31.320Z,43.45
2022-10-12T10:20:06.249Z,43.94
2022-10-12T10:22:38.278Z,44.41
2022-10-12T10:25:13.187Z,45.41
2022-10-12T10:27:45.916Z,45.45
2022-10-12T10:30:40.910Z,46.02
2022-10-12T10:32:58.402Z,46.35
2022-10-12T10:35:31.131Z,47.05
2022-10-12T10:38:03.963Z,47.10
2022-10-12T10:40:36.453Z,47.75
2022-10-12T10:43:11.907Z,48.63
2022-10-12T10:45:59.382Z,48.45
2022-10-12T10:48:40.410Z,47.91
2022-10-12T10:51:12.469Z,48.00
2022-10-12T10:53:47.319Z,47.40
2022-10-12T10:56:22.491Z,46.80
2022-10-12T10:59:00.229Z,46.74
2022-10-12T11:01:41.185Z,46.66
2022-10-12T11:04:16.376Z,46.54
2022-10-12T11:06:51.258Z,46.42
2022-10-12T11:09:31.890Z,45.85
2022-10-12T11:12:09.729Z,46.01
2022-10-12T11:14:57.260Z,45.40
2022-10-12T11:17:33.176Z,45.64
2022-10-12T11:20:24.125Z,45.45
2022-10-12T11:22:58.672Z,44.35
2022-10-12T11:25:34.250Z,44.35
2022-10-12T11:28:08.818Z,44.51
2022-10-12T11:30:43.745Z,44.32
2022-10-12T11:33:18.936Z,44.66
2022-10-12T11:35:52.465Z,45.76
2022-10-12T11:38:30.573Z,46.00
2022-10-12T11:41:33.849Z,46.97
2022-10-12T11:44:00.578Z,46.93
2022-10-12T11:46:35.719Z,47.65
2022-10-12T11:49:16.621Z,48.34
2022-10-12T11:51:50.283Z,49.29
2022-10-12T11:54:49.068Z,49.94
2022-10-12T11:57:30.115Z,50.75
2022-10-12T12:00:08.555Z,51.00
2022-10-12T12:02:45.223Z,51.52
2022-10-12T12:05:18.308Z,51.68
2022-10-12T12:07:56.904Z,51.84
2022-10-12T12:10:33.686Z,52.06
2022-10-12T12:13:15.190Z,52.84
2022-10-12T12:15:56.311Z,53.41
2022-10-12T12:18:31.465Z,54.07
2022-10-12T12:21:10.308Z,54.26
2022-10-12T12:23:54.417Z,54.32
2022-10-12T12:26:31.473Z,54.29
2022-10-12T12:29:27.674Z,54.46
2022-10-12T12:32:01.368Z,54.32
2022-10-12T12:34:33.780Z,54.27
2022-10-12T12:37:13.772Z,55.13
2022-10-12T12:39:48.094Z,55.03
2022-10-12T12:42:26.864Z,55.76
2022-10-12T12:44:58.744Z,54.36
2022-10-12T12:47:45.507Z,56.29
2022-10-12T12:50:42.151Z,56.60
2022-10-12T12:53:20.205Z,57.03
2022-10-12T12:56:20.379Z,57.86
2022-10-12T12:59:20.440Z,57.79
2022-10-12T13:02:17.641Z,58.57
2022-10-12T13:05:04.514Z,59.19
2022-10-12T13:07:45.167Z,59.92
2022-10-12T13:10:28.937Z,61.04
2022-10-12T13:13:09.664Z,61.85
2022-10-12T13:16:07.282Z,64.19
2022-10-12T13:18:54.382Z,65.67
2022-10-12T13:21:30.003Z,65.40
2022-10-12T13:24:19.598Z,66.96
2022-10-12T13:26:54.874Z,67.12
2022-10-12T13:29:39.675Z,68.52
2022-10-12T13:32:21.490Z,67.91
2022-10-12T13:34:56.354Z,64.98
2022-10-12T13:37:35.374Z,66.49
2022-10-12T13:40:09.148Z,67.66
2022-10-12T13:42:41.406Z,68.61
2022-10-12T13:45:16.510Z,68.80
2022-10-12T13:47:48.691Z,68.10
2022-10-12T13:50:22.236Z,68.17
2022-10-12T13:52:55.645Z,68.65
2022-10-12T13:55:29.242Z,69.45
2022-10-12T13:58:01.559Z,69.36
2022-10-12T14:00:36.442Z,69.17
2022-10-12T14:03:08.647Z,69.33
2022-10-12T14:05:45.949Z,69.20
2022-10-12T14:08:21.062Z,69.16
2022-10-12T14:10:53.859Z,68.68
2022-10-12T14:13:36.682Z,68.98
2022-10-12T14:16:10.821Z,68.89
2022-10-12T14:18:47.365Z,69.58
2022-10-12T14:21:35.975Z,69.06
2022-10-12T14:24:11.409Z,69.80
2022-10-12T14:26:45.814Z,71.08
2022-10-12T14:29:30.884Z,71.12
2022-10-12T14:32:14.086Z,69.38
2022-10-12T14:34:50.820Z,70.40
2022-10-12T14:37:26.477Z,69.30
2022-10-12T14:40:02.586Z,69.41
2022-10-12T14:42:37.364Z,69.41
2022-10-12T14:45:12.344Z,69.49
2022-10-12T14:47:44.692Z,70.19
2022-10-12T14:50:19.707Z,70.62
2022-10-12T14:52:54.794Z,70.71
2022-10-12T14:55:32.414Z,71.53
2022-10-12T14:58:06.936Z,71.76
2022-10-12T15:00:39.898Z,72.36
2022-10-12T15:03:12.186Z,72.33
2022-10-12T15:05:44.435Z,72.65
2022-10-12T15:08:16.345Z,73.04
2022-10-12T15:10:51.817Z,72.97
2022-10-12T15:13:24.078Z,72.89
2022-10-12T15:15:57.118Z,73.31
2022-10-12T15:18:29.338Z,73.71
2022-10-12T15:21:01.384Z,74.07
2022-10-12T15:23:33.396Z,74.31
2022-10-12T15:26:06.230Z,74.59
2022-10-12T15:28:39.209Z,75.05
2022-10-12T15:31:18.901Z,75.09
2022-10-12T15:33:48.907Z,75.08
2022-10-12T15:36:20.926Z,75.19
2022-10-12T15:38:53.123Z,75.33
2022-10-12T15:41:26.902Z,75.74
2022-10-12T15:43:59.053Z,75.80
2022-10-12T15:46:31.574Z,76.38
2022-10-12T15:49:03.497Z,76.78
2022-10-12T15:51:38.571Z,76.56
2022-10-12T15:54:12.073Z,76.79
2022-10-12T15:56:44.805Z,76.94
2022-10-12T15:59:17.453Z,77.28
2022-10-12T16:01:49.799Z,76.73
2022-10-12T16:04:22.624Z,76.72
2022-10-12T16:06:54.814Z,76.97
2022-10-12T16:09:27.707Z,77.33
2022-10-12T16:11:59.725Z,76.99
2022-10-12T16:14:33.521Z,77.37
2022-10-12T16:17:05.947Z,77.66
2022-10-12T16:19:38.017Z,76.68
2022-10-12T16:22:12.084Z,76.82
2022-10-12T16:24:44.374Z,76.62
2022-10-12T16:27:17.013Z,76.54
2022-10-12T16:29:49.100Z,77.70
2022-10-12T16:32:21.118Z,77.23
2022-10-12T16:34:53.334Z,76.90
2022-10-12T16:37:25.950Z,77.00
2022-10-12T16:40:00.093Z,77.17
2022-10-12T16:42:33.483Z,77.26
2022-10-12T16:45:05.969Z,77.37
2022-10-12T16:47:42.726Z,77.52
2022-10-12T16:50:13.755Z,77.70
2022-10-12T16:52:46.386Z,77.95
2022-10-12T16:55:19.647Z,78.28
2022-10-12T16:57:51.837Z,78.70
2022-10-12T17:00:24.166Z,79.21
2022-10-12T17:02:57.526Z,79.21
2022-10-12T17:05:30.112Z,79.20
2022-10-12T17:08:02.613Z,79.63
2022-10-12T17:10:34.478Z,79.61
2022-10-12T17:13:06.395Z,79.88
2022-10-12T17:15:40.615Z,79.72
2022-10-12T17:18:12.646Z,80.05
2022-10-12T17:20:47.200Z,80.23
2022-10-12T17:23:18.851Z,80.33
2022-10-12T17:25:51.403Z,80.21
2022-10-12T17:28:23.426Z,80.46
2022-10-12T17:30:55.762Z,80.78
2022-10-12T17:33:29.981Z,80.77
2022-10-12T17:36:03.584Z,80.78
2022-10-12T17:38:37.187Z,80.46
2022-10-12T17:41:09.567Z,80.42
2022-10-12T17:43:41.649Z,79.33
2022-10-12T17:46:13.832Z,79.47
2022-10-12T17:48:45.921Z,79.44
2022-10-12T17:51:18.439Z,79.31
2022-10-12T17:53:50.463Z,79.55
2022-10-12T17:56:22.861Z,79.48
2022-10-12T17:59:00.800Z,79.70
2022-10-12T18:01:33.953Z,79.76
2022-10-12T18:04:06.837Z,79.54
2022-10-12T18:06:39.250Z,79.21
2022-10-12T18:09:12.034Z,79.67
2022-10-12T18:11:44.519Z,79.50
2022-10-12T18:14:16.665Z,79.25
2022-10-12T18:16:48.713Z,78.85
2022-10-12T18:19:20.965Z,78.47
2022-10-12T18:21:53.160Z,78.26
2022-10-12T18:24:25.248Z,78.20
2022-10-12T18:26:57.123Z,78.24
2022-10-12T18:29:29.047Z,77.95
2022-10-12T18:32:01.473Z,77.87
2022-10-12T18:34:36.804Z,77.96
2022-10-12T18:37:09.232Z,77.63
2022-10-12T18:39:42.883Z,77.42
2022-10-12T18:42:14.990Z,77.51
2022-10-12T18:44:47.006Z,77.12
2022-10-12T18:47:23.542Z,77.02
2022-10-12T18:49:52.969Z,76.97
2022-10-12T18:52:24.933Z,76.75
2022-10-12T18:54:56.902Z,76.49
2022-10-12T18:57:32.099Z,76.51
2022-10-12T19:00:04.082Z,76.34
2022-10-12T19:02:37.052Z,76.29
2022-10-12T19:05:09.330Z,75.17
2022-10-12T19:07:41.427Z,74.86
2022-10-12T19:10:13.365Z,74.39
2022-10-12T19:12:45.910Z,74.14
2022-10-12T19:15:17.905Z,73.97
2022-10-12T19:17:49.736Z,73.68
2022-10-12T19:20:21.708Z,73.74
2022-10-12T19:22:53.587Z,73.59
2022-10-12T19:25:25.447Z,73.78
2022-10-12T19:27:58.009Z,74.23
2022-10-12T19:30:30.016Z,73.61
2022-10-12T19:33:02.192Z,73.51
2022-10-12T19:35:37.083Z,73.43
2022-10-12T19:38:09.087Z,73.36
2022-10-12T19:40:41.079Z,73.08
2022-10-12T19:43:13.256Z,73.13
2022-10-12T19:45:45.125Z,72.82
2022-10-12T19:48:17.358Z,72.83
2022-10-12T19:50:49.252Z,72.68
2022-10-12T19:53:21.425Z,72.09
2022-10-12T19:55:53.405Z,71.85
2022-10-12T19:58:25.363Z,72.02
2022-10-12T20:01:11.211Z,72.18
2022-10-12T20:03:47.758Z,71.95
2022-10-12T20:06:20.596Z,71.92
2022-10-12T20:08:54.179Z,71.79
2022-10-12T20:11:26.401Z,71.35
2022-10-12T20:13:58.864Z,71.42
2022-10-12T20:16:34.763Z,71.93
2022-10-12T20:19:06.849Z,72.19
2022-10-12T20:21:38.677Z,72.24
2022-10-12T20:24:10.871Z,72.47
2022-10-12T20:26:43.677Z,72.42
2022-10-12T20:29:15.829Z,72.71
2022-10-12T20:31:47.773Z,72.44
2022-10-12T20:34:19.773Z,72.45
2022-10-12T20:36:51.617Z,72.61
2022-10-12T20:39:23.557Z,72.64
2022-10-12T20:41:56.143Z,72.77
2022-10-12T20:44:27.982Z,72.94
2022-10-12T20:46:59.788Z,72.65
2022-10-12T20:49:31.865Z,72.56
2022-10-12T20:52:03.719Z,72.01
2022-10-12T20:54:36.335Z,72.26
2022-10-12T20:57:08.487Z,72.06
2022-10-12T20:59:42.163Z,71.93
2022-10-12T21:02:13.992Z,71.97
2022-10-12T21:04:46.200Z,71.66
2022-10-12T21:07:19.529Z,71.86
2022-10-12T21:09:52.359Z,72.10
2022-10-12T21:12:24.686Z,72.11
2022-10-12T21:14:56.752Z,72.01
2022-10-12T21:17:28.986Z,72.03
2022-10-12T21:20:00.911Z,72.12
2022-10-12T21:22:33.253Z,72.07
2022-10-12T21:25:06.044Z,71.96
2022-10-12T21:27:37.873Z,71.92
2022-10-12T21:30:10.190Z,71.46
2022-10-12T21:32:42.064Z,71.73
2022-10-12T21:35:14.029Z,71.91
2022-10-12T21:37:46.118Z,72.06
2022-10-12T21:40:17.909Z,72.24
2022-10-12T21:42:49.996Z,72.46
2022-10-12T21:45:22.019Z,72.82
2022-10-12T21:47:54.155Z,73.19
2022-10-12T21:50:25.992Z,73.60
2022-10-12T21:53:00.454Z,73.50
2022-10-12T21:55:34.073Z,73.37
2022-10-12T21:58:05.983Z,72.82
2022-10-12T22:00:37.922Z,72.68
2022-10-12T22:03:10.191Z,72.71
2022-10-12T22:05:45.945Z,72.75
2022-10-12T22:08:18.028Z,72.63
2022-10-12T22:10:50.372Z,72.34
2022-10-12T22:13:22.410Z,72.09
2022-10-12T22:16:14.588Z,71.84
2022-10-12T22:18:46.974Z,71.87
2022-10-12T22:21:20.860Z,71.80
2022-10-12T22:23:53.712Z,71.77
2022-10-12T22:26:25.927Z,71.91
2022-10-12T22:29:01.034Z,71.84
2022-10-12T22:31:33.327Z,71.59
2022-10-12T22:34:05.987Z,71.31
2022-10-12T22:36:39.614Z,71.32
2022-10-12T22:39:12.432Z,71.51
2022-10-12T22:41:45.354Z,71.75
2022-10-12T22:44:17.247Z,71.89
2022-10-12T22:46:49.416Z,71.98
2022-10-12T22:49:21.343Z,72.25
2022-10-12T22:51:53.310Z,72.36
2022-10-12T22:54:25.558Z,72.20
2022-10-12T22:56:57.860Z,72.19
2022-10-12T22:59:30.504Z,71.93
2022-10-12T23:02:02.605Z,72.13
2022-10-12T23:04:34.837Z,72.17
2022-10-12T23:07:06.967Z,71.86
2022-10-12T23:09:39.226Z,71.80
2022-10-12T23:12:11.291Z,72.09
2022-10-12T23:14:44.380Z,72.26
2022-10-12T23:17:16.377Z,72.19
2022-10-12T23:19:48.188Z,72.09
2022-10-12T23:22:20.781Z,72.30
2022-10-12T23:24:52.866Z,72.54
2022-10-12T23:27:24.678Z,72.41
2022-10-12T23:29:56.601Z,72.53
2022-10-12T23:32:31.222Z,72.69
2022-10-12T23:35:02.330Z,72.84
2022-10-12T23:37:33.956Z,72.09
2022-10-12T23:40:06.334Z,72.38
2022-10-12T23:42:38.254Z,72.54
2022-10-12T23:45:10.616Z,72.72
2022-10-12T23:47:42.626Z,72.96
2022-10-12T23:50:14.589Z,72.85
2022-10-12T23:52:46.816Z,72.93
2022-10-12T23:55:18.617Z,73.24
2022-10-12T23:57:50.576Z,73.48
